Terminal Aerodrome Forecast
Issued by NWS

Home | Current Version | Previous Version | Text Only | Print | Product List | Glossary On
Versions: 1 2 3 4 5 6 7 8 9 10 11 12 13 14 15 16
129
FTUS42 KGSP 181120
TAFGMU
TAF
KGMU 181120Z 1812/1912 04004KT P6SM FEW250
     FM181400 06007KT P6SM SCT250
     FM190000 VRB03KT P6SM FEW250=

USA.gov is the U.S. government's official web portal to all federal, state and local government web resources and services.